createdAt,value
2022-12-08T00:01:24.588Z,12.40
2022-12-08T00:05:43.936Z,11.80
2022-12-08T00:09:34.724Z,11.43
2022-12-08T00:13:20.938Z,11.23
2022-12-08T00:17:06.316Z,12.40
2022-12-08T00:20:56.112Z,12.37
2022-12-08T00:24:40.131Z,12.30
2022-12-08T00:28:23.076Z,11.57
2022-12-08T00:32:07.798Z,11.77
2022-12-08T00:35:54.929Z,11.80
2022-12-08T00:39:37.656Z,11.43
2022-12-08T00:43:20.433Z,11.60
2022-12-08T00:47:03.226Z,11.70
2022-12-08T00:50:51.612Z,11.00
2022-12-08T00:54:35.661Z,11.10
2022-12-08T00:58:18.425Z,11.33
2022-12-08T01:02:01.130Z,10.60
2022-12-08T01:05:44.504Z,10.97
2022-12-08T01:09:27.173Z,11.40
2022-12-08T01:13:11.775Z,11.03
2022-12-08T01:16:54.506Z,11.30
2022-12-08T01:20:49.411Z,10.60
2022-12-08T01:24:32.077Z,10.83
2022-12-08T01:28:18.178Z,11.07
2022-12-08T01:32:00.897Z,11.53
2022-12-08T01:35:56.438Z,11.83
2022-12-08T01:39:40.881Z,11.37
2022-12-08T01:43:24.977Z,12.23
2022-12-08T01:47:10.780Z,12.20
2022-12-08T01:50:58.137Z,11.40
2022-12-08T01:54:44.309Z,11.00
2022-12-08T01:58:31.733Z,12.17
2022-12-08T02:02:15.161Z,11.90
2022-12-08T02:06:10.189Z,11.53
2022-12-08T02:09:56.071Z,11.17
2022-12-08T02:13:40.301Z,11.63
2022-12-08T02:17:33.234Z,11.67
2022-12-08T02:21:20.099Z,11.77
2022-12-08T02:25:08.166Z,11.97
2022-12-08T02:29:17.706Z,12.17
2022-12-08T02:33:29.160Z,12.07
2022-12-08T02:37:18.990Z,11.33
2022-12-08T02:41:09.674Z,10.87
2022-12-08T02:44:58.828Z,12.43
2022-12-08T02:48:41.560Z,12.30
2022-12-08T02:52:41.254Z,11.47
2022-12-08T02:56:54.720Z,12.67
2022-12-08T03:00:42.536Z,12.63
2022-12-08T03:04:35.257Z,11.90
2022-12-08T03:08:26.069Z,11.80
2022-12-08T03:12:15.212Z,10.90
2022-12-08T03:15:58.025Z,11.20
2022-12-08T03:19:43.444Z,11.83
2022-12-08T03:23:27.927Z,11.93
2022-12-08T03:27:12.517Z,12.07
2022-12-08T03:30:58.121Z,11.87
2022-12-08T03:34:46.966Z,11.73
2022-12-08T03:38:38.276Z,11.40
2022-12-08T03:42:26.808Z,10.17
2022-12-08T03:46:09.588Z,11.33
2022-12-08T03:49:52.981Z,11.77
2022-12-08T03:53:37.056Z,12.27
2022-12-08T03:57:22.672Z,12.00
2022-12-08T04:01:05.384Z,12.03
2022-12-08T04:04:49.964Z,12.13
2022-12-08T04:08:38.671Z,11.70
2022-12-08T04:12:22.819Z,11.37
2022-12-08T04:16:06.487Z,12.10
2022-12-08T04:19:49.208Z,11.67
2022-12-08T04:23:31.868Z,12.10
2022-12-08T04:27:14.580Z,11.07
2022-12-08T04:30:58.695Z,11.57
2022-12-08T04:34:41.580Z,12.33
2022-12-08T04:38:24.321Z,11.53
2022-12-08T04:42:07.064Z,11.07
2022-12-08T04:45:49.805Z,11.93
2022-12-08T04:49:33.917Z,11.23
2022-12-08T04:53:16.668Z,12.33
2022-12-08T04:57:04.274Z,12.20
2022-12-08T05:00:47.713Z,12.60
2022-12-08T05:04:30.431Z,11.97
2022-12-08T05:08:14.726Z,11.97
2022-12-08T05:11:57.499Z,12.03
2022-12-08T05:15:40.245Z,11.70
2022-12-08T05:19:25.685Z,11.60
2022-12-08T05:23:08.450Z,11.80
2022-12-08T05:26:52.574Z,11.17
2022-12-08T05:30:35.287Z,11.80
2022-12-08T05:34:18.034Z,11.57
2022-12-08T05:38:03.637Z,11.67
2022-12-08T05:41:46.410Z,11.77
2022-12-08T05:45:33.348Z,12.23
2022-12-08T05:49:16.245Z,12.60
2022-12-08T05:53:01.808Z,13.10
2022-12-08T05:56:44.529Z,13.80
2022-12-08T06:00:34.817Z,12.53
2022-12-08T06:04:17.531Z,12.83
2022-12-08T06:08:00.274Z,12.10
2022-12-08T06:11:43.433Z,13.20
2022-12-08T06:15:26.269Z,12.90
2022-12-08T06:19:10.317Z,12.17
2022-12-08T06:22:53.029Z,11.73
2022-12-08T06:26:36.062Z,13.27
2022-12-08T06:30:19.380Z,11.93
2022-12-08T06:34:02.106Z,13.07
2022-12-08T06:37:46.183Z,12.87
2022-12-08T06:41:28.924Z,14.70
2022-12-08T06:45:14.382Z,14.83
2022-12-08T06:48:57.095Z,13.80
2022-12-08T06:52:49.255Z,12.63
2022-12-08T06:56:37.326Z,12.23
2022-12-08T07:00:23.069Z,12.97
2022-12-08T07:04:06.304Z,11.73
2022-12-08T07:07:49.164Z,11.47
2022-12-08T07:11:32.315Z,11.93
2022-12-08T07:15:16.528Z,13.87
2022-12-08T07:18:59.286Z,12.77
2022-12-08T07:22:42.340Z,12.07
2022-12-08T07:26:25.072Z,12.77
2022-12-08T07:30:09.289Z,11.87
2022-12-08T07:33:56.173Z,11.63
2022-12-08T07:37:39.503Z,12.70
2022-12-08T07:41:24.220Z,11.70
2022-12-08T07:45:08.142Z,11.90
2022-12-08T07:48:51.422Z,12.20
2022-12-08T07:52:36.507Z,12.93
2022-12-08T07:56:19.628Z,11.80
2022-12-08T08:00:03.055Z,12.77
2022-12-08T08:03:45.955Z,11.83
2022-12-08T08:07:28.642Z,12.20
2022-12-08T08:11:19.016Z,11.47
2022-12-08T08:15:05.456Z,11.30
2022-12-08T08:18:48.830Z,10.53
2022-12-08T08:22:31.537Z,10.30
2022-12-08T08:26:15.826Z,10.67
2022-12-08T08:29:58.563Z,10.37
2022-12-08T08:33:41.289Z,9.50
2022-12-08T08:37:26.011Z,10.33
2022-12-08T08:41:10.145Z,8.00
2022-12-08T08:44:57.242Z,7.37
2022-12-08T08:48:42.811Z,7.00
2022-12-08T08:52:25.595Z,7.57
2022-12-08T08:56:10.258Z,7.20
2022-12-08T08:59:52.975Z,7.00
2022-12-08T09:03:37.053Z,6.73
2022-12-08T09:07:19.752Z,6.93
2022-12-08T09:11:02.563Z,6.80
2022-12-08T09:14:45.846Z,7.83
2022-12-08T09:18:28.597Z,7.23
2022-12-08T09:22:12.666Z,7.43
2022-12-08T09:25:55.454Z,6.20
2022-12-08T09:29:38.244Z,6.57
2022-12-08T09:33:20.984Z,12.97
2022-12-08T09:37:03.734Z,12.30
2022-12-08T09:40:50.874Z,12.60
2022-12-08T09:44:50.435Z,13.40
2022-12-08T09:48:35.398Z,11.47
2022-12-08T09:52:22.774Z,10.70
2022-12-08T09:56:10.449Z,11.93
2022-12-08T09:59:56.229Z,11.40
2022-12-08T10:03:39.021Z,11.70
2022-12-08T10:07:46.676Z,12.27
2022-12-08T10:11:39.495Z,12.17
2022-12-08T10:15:43.000Z,12.53
2022-12-08T10:19:26.683Z,30.70
2022-12-08T10:23:15.184Z,12.93
2022-12-08T10:26:59.263Z,13.73
2022-12-08T10:30:42.091Z,14.50
2022-12-08T10:34:25.192Z,15.47
2022-12-08T10:38:18.134Z,15.77
2022-12-08T10:42:09.356Z,15.13
2022-12-08T10:45:52.522Z,15.47
2022-12-08T10:49:36.031Z,16.80
2022-12-08T10:53:22.368Z,16.27
2022-12-08T10:57:09.258Z,16.33
2022-12-08T11:00:53.178Z,16.13
2022-12-08T11:04:37.575Z,16.63
2022-12-08T11:08:20.302Z,17.10
2022-12-08T11:12:10.403Z,16.90
2022-12-08T11:15:56.279Z,15.83
2022-12-08T11:19:40.506Z,15.93
2022-12-08T11:23:26.394Z,16.30
2022-12-08T11:27:10.836Z,16.30
2022-12-08T11:30:58.716Z,15.53
2022-12-08T11:34:43.945Z,14.73
2022-12-08T11:38:28.149Z,16.20
2022-12-08T11:42:14.289Z,16.63
2022-12-08T11:46:00.216Z,15.30
2022-12-08T11:49:43.996Z,16.23
2022-12-08T11:53:30.471Z,16.60
2022-12-08T11:57:16.455Z,16.50
2022-12-08T12:00:59.162Z,15.83
2022-12-08T12:04:45.437Z,15.37
2022-12-08T12:08:38.536Z,15.13
2022-12-08T12:12:39.277Z,14.97
2022-12-08T12:16:48.181Z,15.80
2022-12-08T12:20:36.822Z,15.50
2022-12-08T12:24:26.047Z,14.50
2022-12-08T12:28:14.631Z,14.33
2022-12-08T12:31:59.603Z,13.70
2022-12-08T12:35:44.901Z,14.93
2022-12-08T12:39:30.221Z,14.57
2022-12-08T12:43:23.682Z,13.80
2022-12-08T12:47:10.560Z,14.40
2022-12-08T12:50:55.135Z,14.23
2022-12-08T12:54:37.857Z,13.53
2022-12-08T12:58:38.960Z,15.00
2022-12-08T13:02:24.425Z,12.97
2022-12-08T13:06:12.909Z,12.87
2022-12-08T13:10:00.033Z,13.27
2022-12-08T13:13:56.775Z,12.53
2022-12-08T13:17:45.707Z,12.57
2022-12-08T13:21:33.669Z,13.33
2022-12-08T13:25:48.621Z,16.10
2022-12-08T13:29:33.289Z,14.43
2022-12-08T13:33:19.359Z,14.37
2022-12-08T13:37:20.104Z,14.53
2022-12-08T13:41:04.894Z,14.03
2022-12-08T13:50:36.581Z,15.63
2022-12-08T13:57:11.498Z,14.70
2022-12-08T14:01:05.342Z,14.30
2022-12-08T14:05:16.778Z,14.80
2022-12-08T14:09:08.511Z,14.13
2022-12-08T14:12:55.984Z,16.73
2022-12-08T14:16:42.193Z,15.63
2022-12-08T14:20:26.974Z,15.97
2022-12-08T14:24:10.390Z,16.03
2022-12-08T14:27:58.149Z,15.13
2022-12-08T14:31:42.583Z,15.50
2022-12-08T14:35:26.994Z,15.83
2022-12-08T14:39:10.210Z,15.10
2022-12-08T14:42:54.479Z,15.60
2022-12-08T14:46:38.065Z,15.30
2022-12-08T14:50:46.043Z,16.80
2022-12-08T14:54:30.694Z,16.10
2022-12-08T14:58:19.361Z,16.00
2022-12-08T15:02:14.880Z,18.40
2022-12-08T15:06:00.011Z,17.97
2022-12-08T15:09:45.108Z,14.40
2022-12-08T15:13:28.128Z,13.63
2022-12-08T15:17:29.727Z,14.57
2022-12-08T15:21:13.759Z,13.63
2022-12-08T15:24:57.102Z,14.33
2022-12-08T15:28:39.809Z,13.67
2022-12-08T15:32:24.158Z,21.33
2022-12-08T15:36:07.445Z,14.03
2022-12-08T15:39:52.005Z,14.27
2022-12-08T15:43:35.680Z,13.83
2022-12-08T15:47:20.580Z,13.43
2022-12-08T15:51:06.155Z,14.27
2022-12-08T15:54:49.649Z,14.40
2022-12-08T16:03:05.007Z,16.50
2022-12-08T16:11:28.921Z,13.27
2022-12-08T16:15:49.616Z,15.33
2022-12-08T16:18:51.031Z,16.13
2022-12-08T16:27:50.722Z,16.57
2022-12-08T16:30:44.149Z,19.37
2022-12-08T16:34:26.978Z,16.40
2022-12-08T16:38:11.331Z,17.67
2022-12-08T16:42:11.581Z,16.73
2022-12-08T16:45:55.719Z,16.83
2022-12-08T16:49:39.135Z,16.13
2022-12-08T16:53:24.694Z,15.50
2022-12-08T16:57:07.689Z,15.97
2022-12-08T17:00:50.456Z,23.17
2022-12-08T17:04:36.593Z,23.40
2022-12-08T17:08:19.584Z,22.53
2022-12-08T17:12:04.342Z,21.23
2022-12-08T17:15:47.342Z,15.47
2022-12-08T17:19:30.204Z,14.73
2022-12-08T17:23:14.378Z,15.20
2022-12-08T17:26:58.696Z,15.87
2022-12-08T17:30:41.805Z,15.47
2022-12-08T17:34:24.667Z,15.50
2022-12-08T17:38:07.475Z,16.57
2022-12-08T17:41:54.054Z,16.70
2022-12-08T17:45:42.324Z,15.13
2022-12-08T17:49:26.965Z,15.17
2022-12-08T17:53:12.352Z,16.30
2022-12-08T17:56:58.641Z,15.67
2022-12-08T18:00:41.602Z,16.77
2022-12-08T18:04:28.032Z,15.83
2022-12-08T18:08:11.095Z,16.27
2022-12-08T18:11:56.879Z,16.90
2022-12-08T18:15:40.920Z,15.97
2022-12-08T18:19:23.632Z,17.77
2022-12-08T18:23:06.328Z,17.33
2022-12-08T18:26:50.619Z,17.87
2022-12-08T18:30:33.411Z,17.13
2022-12-08T18:34:18.893Z,18.07
2022-12-08T18:38:01.608Z,17.67
2022-12-08T18:41:44.340Z,17.67
2022-12-08T18:45:27.082Z,17.87
2022-12-08T18:49:10.611Z,18.17
2022-12-08T18:52:54.727Z,30.93
2022-12-08T18:56:37.968Z,20.17
2022-12-08T19:00:21.303Z,19.47
2022-12-08T19:04:27.464Z,19.17
2022-12-08T19:08:09.369Z,18.23
2022-12-08T19:11:52.254Z,18.97
2022-12-08T19:15:35.205Z,18.63
2022-12-08T19:19:18.081Z,21.20
2022-12-08T19:23:00.825Z,22.87
2022-12-08T19:26:45.196Z,22.07
2022-12-08T19:30:27.899Z,24.13
2022-12-08T19:34:11.227Z,27.00
2022-12-08T19:37:54.772Z,25.33
2022-12-08T19:41:56.861Z,25.90
2022-12-08T19:45:41.098Z,24.47
2022-12-08T19:49:24.061Z,25.97
2022-12-08T19:53:08.498Z,27.07
2022-12-08T19:56:51.440Z,25.23
2022-12-08T20:00:35.542Z,26.13
2022-12-08T20:04:20.047Z,28.07
2022-12-08T20:08:03.324Z,29.73
2022-12-08T20:11:46.069Z,28.43
2022-12-08T20:15:28.732Z,27.13
2022-12-08T20:19:11.546Z,26.87
2022-12-08T20:22:55.587Z,29.33
2022-12-08T20:26:38.366Z,28.30
2022-12-08T20:30:21.303Z,29.13
2022-12-08T20:34:04.104Z,32.57
2022-12-08T20:37:46.866Z,32.73
2022-12-08T20:41:36.144Z,31.10
2022-12-08T20:45:21.766Z,30.20
2022-12-08T20:49:05.512Z,44.23
2022-12-08T20:52:48.235Z,30.97
2022-12-08T20:56:32.814Z,31.53
2022-12-08T21:00:16.755Z,34.40
2022-12-08T21:04:01.700Z,32.97
2022-12-08T21:07:45.011Z,36.73
2022-12-08T21:11:28.105Z,33.47
2022-12-08T21:15:13.266Z,31.90
2022-12-08T21:18:57.368Z,31.90
2022-12-08T21:22:42.306Z,30.77
2022-12-08T21:26:28.130Z,29.87
2022-12-08T21:30:16.675Z,28.93
2022-12-08T21:34:04.524Z,29.17
2022-12-08T21:37:50.443Z,30.33
2022-12-08T21:41:50.691Z,29.83
2022-12-08T21:45:35.409Z,28.97
2022-12-08T21:49:18.345Z,28.10
2022-12-08T21:53:01.469Z,26.10
2022-12-08T21:56:45.360Z,27.90
2022-12-08T22:00:28.210Z,27.23
2022-12-08T22:04:18.027Z,26.83
2022-12-08T22:08:01.221Z,27.33
2022-12-08T22:11:47.272Z,27.07
2022-12-08T22:15:30.348Z,26.80
2022-12-08T22:19:14.920Z,26.30
2022-12-08T22:22:57.890Z,27.00
2022-12-08T22:26:40.932Z,26.93
2022-12-08T22:30:23.732Z,28.70
2022-12-08T22:34:06.432Z,28.67
2022-12-08T22:37:52.093Z,27.00
2022-12-08T22:41:34.923Z,25.70
2022-12-08T22:45:17.715Z,25.37
2022-12-08T22:49:00.555Z,25.27
2022-12-08T22:52:43.530Z,26.57
2022-12-08T22:56:27.567Z,26.17
2022-12-08T23:00:12.941Z,22.80
2022-12-08T23:03:56.528Z,22.30
2022-12-08T23:07:40.275Z,22.43
2022-12-08T23:11:25.432Z,22.33
2022-12-08T23:15:10.606Z,20.80
2022-12-08T23:18:54.547Z,20.97
2022-12-08T23:22:37.388Z,19.63
2022-12-08T23:26:22.580Z,19.90
2022-12-08T23:30:06.267Z,19.67
2022-12-08T23:33:51.143Z,21.50
2022-12-08T23:37:34.109Z,20.90
2022-12-08T23:41:17.391Z,21.10
2022-12-08T23:45:00.372Z,20.13
2022-12-08T23:48:43.401Z,20.73
2022-12-08T23:52:27.516Z,20.23
2022-12-08T23:56:12.187Z,19.63
2022-12-08T23:59:55.667Z,19.33
